Tropical Cyclones
[Index]
Main Index Home Page Stock Weather Photos Extreme Storms Discussion Storm News and Storm Chasing Reports Tropical Cyclones / Hurricanes / Typhoons Weather Data and Links Wild Fires / Bushfires Weather Observation Techniques Weather Picture Catalogue Tornado Pictures and Reports Stock Video Footage and DVDs for sale
Season 1987-1988 Tropical Cyclone BOLA Track Map
Season 1987-1988 Summaries: [BoM-AU] [JTWC-AU] [JTWC-SIO] [JTWC-SPAC] [JTWC-SH]
<<- Previous TC | JTWC 1987-1988 Season | Next TC ->>

click for intensity scale information  Lat/long Grid: Show Hide

 Date Labels: Show Hide

Joint Typhoon Warning Centre Cyclone Data

Name: BOLA

23 Feb 1988 18:00 UTC to 05 Mar 1988 12:00 UTC

    date/time    lat    long     hPa   cat  kts
1988-02-23 18   10.4   179.5                  25          
1988-02-24 00   11.6   178.6                  30          
1988-02-24 06   12.8   177.8                  35          
1988-02-24 12   13.9   177.2                  35          
1988-02-24 18   14.5   177.1                  35          
1988-02-25 00   15.2   177.0                  35          
1988-02-25 06   15.6   176.8            1     40          
1988-02-25 12   15.6   176.0            1     45          
1988-02-25 18   15.5   175.0            1     50          
1988-02-26 00   15.1   173.8            1     50          
1988-02-26 06   14.8   172.6            2     55          
1988-02-26 12   14.5   171.4            2     55          
1988-02-26 18   14.8   170.9            2     55          
1988-02-27 00   15.3   170.7            2     55          
1988-02-27 06   15.8   170.3            2     55          
1988-02-27 12   16.2   170.1            2     55          
1988-02-27 18   16.3   169.7            2     55          
1988-02-28 00   16.4   169.2            2     60          
1988-02-28 06   16.6   168.8            2     70          
1988-02-28 12   16.6   168.3            3     80          
1988-02-28 18   16.7   168.1            3     85          
1988-02-29 00   16.8   168.3            3     90          
1988-02-29 06   16.9   168.9            3     90          
1988-02-29 12   17.3   169.5            3     95          
1988-02-29 18   17.8   169.8            3     95          
1988-03-01 00   18.1   169.7            3     95          
1988-03-01 06   18.1   169.3            4    100          
1988-03-01 12   18.0   169.0            4    105          
1988-03-01 18   17.8   169.0            4    100          
1988-03-02 00   17.7   169.2            3     95          
1988-03-02 06   17.6   169.5            3     90          
1988-03-02 12   17.7   169.8            3     80          
1988-03-02 18   17.8   170.3            2     70          
1988-03-03 00   18.2   171.2            2     70          
1988-03-03 06   18.7   172.6            2     65          
1988-03-03 12   19.5   174.3            2     60          
1988-03-03 18   20.8   176.1            2     60          
1988-03-04 00   22.7   177.3            2     55          
1988-03-04 06   24.7   178.4            1     50          
1988-03-04 12   26.0   178.6            1     45          
1988-03-04 18   27.3   178.4            1     45          
1988-03-05 00   28.1   177.5            1     40          
1988-03-05 06   28.7   176.9                  35          
1988-03-05 12   29.2   176.5                  30          
Winds are 1-min average.

Tropical cyclone tracks developed by Michael Bath using data from the Joint Typhoon Warning Centre Best Tracks and Google Maps.


[Australian Severe Weather index] [Copyright Notice] [Email Contacts] [Search This Site] [Privacy Policy]
Document: tropical_cyclone_bola.htm Updated: 18 September 2016